Catterick Garrison, United Kingdom
Current Conditions -  °F | °C
As of 3:50 AM on Thursday 18 Dec 2014 (Local Time) from EGXE Reporting Station
Few Clouds Few Clouds  
Wind Chill: 54°   Ceiling: Unl
Heat Index: 54°   Visibility: 6mi
Dew Point: 48°   Wind: 13mph
Humidity: 82%   Direction: 230°SW
Pressure: 29.56"   Gusts: NA
Location:  54.38°N, 1.74°W
Report Text: EGXE 180350Z AUTO 23011KT 9999 FEW020/// 12/09 Q1001
Loading
Personal Weather Stations






























Interactive Weather Map New forecast layout! Learn more

10-Day Weather Forecast

Advertisements
Track Severe Weather on mobile